sensor_id;sensor_type;location;lat;lon;timestamp;P1;durP1;ratioP1;P2;durP2;ratioP2
8791;SDS011;4432;50.890;4.744;2022-12-24T00:02:20;18.43;;;3.27;;
8791;SDS011;4432;50.890;4.744;2022-12-24T00:04:46;12.30;;;2.10;;
8791;SDS011;4432;50.890;4.744;2022-12-24T00:07:11;18.17;;;3.10;;
8791;SDS011;4432;50.890;4.744;2022-12-24T00:09:37;11.10;;;2.30;;
8791;SDS011;4432;50.890;4.744;2022-12-24T00:12:03;13.30;;;2.47;;
8791;SDS011;4432;50.890;4.744;2022-12-24T00:14:29;9.30;;;2.00;;
8791;SDS011;4432;50.890;4.744;2022-12-24T00:16:55;12.53;;;2.83;;
8791;SDS011;4432;50.890;4.744;2022-12-24T00:19:21;11.50;;;2.50;;
8791;SDS011;4432;50.890;4.744;2022-12-24T00:21:47;11.33;;;2.80;;
8791;SDS011;4432;50.890;4.744;2022-12-24T00:24:12;18.07;;;2.83;;
8791;SDS011;4432;50.890;4.744;2022-12-24T00:26:38;16.00;;;2.93;;
8791;SDS011;4432;50.890;4.744;2022-12-24T00:29:04;11.13;;;2.67;;
8791;SDS011;4432;50.890;4.744;2022-12-24T00:31:29;10.23;;;2.20;;
8791;SDS011;4432;50.890;4.744;2022-12-24T00:33:55;11.57;;;2.37;;
8791;SDS011;4432;50.890;4.744;2022-12-24T00:36:21;17.23;;;2.30;;
8791;SDS011;4432;50.890;4.744;2022-12-24T00:38:47;16.43;;;2.60;;
8791;SDS011;4432;50.890;4.744;2022-12-24T00:41:13;9.77;;;2.30;;
8791;SDS011;4432;50.890;4.744;2022-12-24T00:46:22;23.80;;;3.17;;
8791;SDS011;4432;50.890;4.744;2022-12-24T00:48:48;15.40;;;2.27;;
8791;SDS011;4432;50.890;4.744;2022-12-24T00:51:14;10.77;;;2.37;;
8791;SDS011;4432;50.890;4.744;2022-12-24T00:53:40;12.27;;;2.70;;
8791;SDS011;4432;50.890;4.744;2022-12-24T00:56:07;16.87;;;2.83;;
8791;SDS011;4432;50.890;4.744;2022-12-24T00:58:33;17.20;;;2.63;;
8791;SDS011;4432;50.890;4.744;2022-12-24T01:00:59;10.40;;;2.73;;
8791;SDS011;4432;50.890;4.744;2022-12-24T01:03:25;13.27;;;2.73;;
8791;SDS011;4432;50.890;4.744;2022-12-24T01:06:07;16.30;;;2.23;;
8791;SDS011;4432;50.890;4.744;2022-12-24T01:08:35;11.97;;;2.60;;
8791;SDS011;4432;50.890;4.744;2022-12-24T01:11:02;10.87;;;2.27;;
8791;SDS011;4432;50.890;4.744;2022-12-24T01:13:29;12.30;;;2.30;;
8791;SDS011;4432;50.890;4.744;2022-12-24T01:15:55;4.10;;;1.97;;
8791;SDS011;4432;50.890;4.744;2022-12-24T01:18:21;8.90;;;2.17;;
8791;SDS011;4432;50.890;4.744;2022-12-24T01:20:58;10.40;;;1.97;;
8791;SDS011;4432;50.890;4.744;2022-12-24T01:23:25;8.17;;;2.00;;
8791;SDS011;4432;50.890;4.744;2022-12-24T01:25:52;8.97;;;2.43;;
8791;SDS011;4432;50.890;4.744;2022-12-24T01:28:19;9.17;;;2.30;;
8791;SDS011;4432;50.890;4.744;2022-12-24T01:30:46;11.27;;;2.30;;
8791;SDS011;4432;50.890;4.744;2022-12-24T01:33:13;17.10;;;3.00;;
8791;SDS011;4432;50.890;4.744;2022-12-24T01:35:39;14.97;;;2.47;;
8791;SDS011;4432;50.890;4.744;2022-12-24T01:38:06;15.13;;;2.83;;
8791;SDS011;4432;50.890;4.744;2022-12-24T01:40:32;10.13;;;2.17;;
8791;SDS011;4432;50.890;4.744;2022-12-24T01:43:17;13.83;;;2.27;;
8791;SDS011;4432;50.890;4.744;2022-12-24T01:48:36;11.57;;;2.30;;
8791;SDS011;4432;50.890;4.744;2022-12-24T01:51:10;8.77;;;2.20;;
8791;SDS011;4432;50.890;4.744;2022-12-24T01:53:51;6.67;;;1.70;;
8791;SDS011;4432;50.890;4.744;2022-12-24T01:56:24;6.23;;;1.33;;
8791;SDS011;4432;50.890;4.744;2022-12-24T01:58:54;6.00;;;1.47;;
8791;SDS011;4432;50.890;4.744;2022-12-24T02:01:22;8.53;;;1.70;;
8791;SDS011;4432;50.890;4.744;2022-12-24T02:03:48;8.13;;;1.53;;
8791;SDS011;4432;50.890;4.744;2022-12-24T02:06:14;5.33;;;1.60;;
8791;SDS011;4432;50.890;4.744;2022-12-24T02:08:43;5.73;;;1.53;;
8791;SDS011;4432;50.890;4.744;2022-12-24T02:11:11;4.97;;;1.30;;
8791;SDS011;4432;50.890;4.744;2022-12-24T02:13:38;4.17;;;1.10;;
8791;SDS011;4432;50.890;4.744;2022-12-24T02:24:42;13.10;;;2.20;;
8791;SDS011;4432;50.890;4.744;2022-12-24T02:27:54;6.73;;;2.13;;
8791;SDS011;4432;50.890;4.744;2022-12-24T02:30:33;13.63;;;2.43;;
8791;SDS011;4432;50.890;4.744;2022-12-24T02:33:22;14.90;;;2.40;;
8791;SDS011;4432;50.890;4.744;2022-12-24T02:41:16;10.97;;;2.30;;
8791;SDS011;4432;50.890;4.744;2022-12-24T02:43:47;14.00;;;2.90;;
8791;SDS011;4432;50.890;4.744;2022-12-24T02:46:17;8.63;;;2.23;;
8791;SDS011;4432;50.890;4.744;2022-12-24T02:48:52;15.53;;;2.77;;
8791;SDS011;4432;50.890;4.744;2022-12-24T02:51:22;6.37;;;2.13;;
8791;SDS011;4432;50.890;4.744;2022-12-24T02:53:49;8.07;;;2.10;;
8791;SDS011;4432;50.890;4.744;2022-12-24T02:56:25;16.63;;;2.57;;
8791;SDS011;4432;50.890;4.744;2022-12-24T03:02:25;16.43;;;2.90;;
8791;SDS011;4432;50.890;4.744;2022-12-24T03:13:20;14.53;;;2.60;;
8791;SDS011;4432;50.890;4.744;2022-12-24T03:15:48;11.33;;;2.37;;
8791;SDS011;4432;50.890;4.744;2022-12-24T03:18:20;12.50;;;2.07;;
8791;SDS011;4432;50.890;4.744;2022-12-24T03:21:02;17.83;;;3.17;;
8791;SDS011;4432;50.890;4.744;2022-12-24T03:23:30;7.67;;;1.97;;
8791;SDS011;4432;50.890;4.744;2022-12-24T03:25:57;17.63;;;2.93;;
8791;SDS011;4432;50.890;4.744;2022-12-24T03:28:25;8.20;;;1.63;;
8791;SDS011;4432;50.890;4.744;2022-12-24T03:30:52;15.73;;;3.17;;
8791;SDS011;4432;50.890;4.744;2022-12-24T03:33:19;10.20;;;2.40;;
8791;SDS011;4432;50.890;4.744;2022-12-24T03:35:45;14.10;;;3.00;;
8791;SDS011;4432;50.890;4.744;2022-12-24T03:38:11;8.97;;;2.40;;
8791;SDS011;4432;50.890;4.744;2022-12-24T03:40:37;12.83;;;2.97;;
8791;SDS011;4432;50.890;4.744;2022-12-24T03:43:03;7.23;;;2.10;;
8791;SDS011;4432;50.890;4.744;2022-12-24T03:45:29;15.67;;;3.37;;
8791;SDS011;4432;50.890;4.744;2022-12-24T03:47:54;10.57;;;2.40;;
8791;SDS011;4432;50.890;4.744;2022-12-24T03:50:20;9.10;;;2.73;;
8791;SDS011;4432;50.890;4.744;2022-12-24T03:52:46;18.60;;;2.67;;
8791;SDS011;4432;50.890;4.744;2022-12-24T03:55:12;6.70;;;2.37;;
8791;SDS011;4432;50.890;4.744;2022-12-24T03:57:38;15.17;;;2.63;;
8791;SDS011;4432;50.890;4.744;2022-12-24T04:00:04;15.07;;;2.97;;
8791;SDS011;4432;50.890;4.744;2022-12-24T04:02:31;11.00;;;1.90;;
8791;SDS011;4432;50.890;4.744;2022-12-24T04:04:57;9.83;;;2.77;;
8791;SDS011;4432;50.890;4.744;2022-12-24T04:07:23;14.53;;;2.77;;
8791;SDS011;4432;50.890;4.744;2022-12-24T04:09:48;17.87;;;3.80;;
8791;SDS011;4432;50.890;4.744;2022-12-24T04:12:14;16.67;;;2.63;;
8791;SDS011;4432;50.890;4.744;2022-12-24T04:14:40;22.30;;;3.03;;
8791;SDS011;4432;50.890;4.744;2022-12-24T04:17:06;14.20;;;3.20;;
8791;SDS011;4432;50.890;4.744;2022-12-24T04:19:32;13.53;;;3.17;;
8791;SDS011;4432;50.890;4.744;2022-12-24T04:21:57;19.37;;;3.23;;
8791;SDS011;4432;50.890;4.744;2022-12-24T04:24:23;17.23;;;2.90;;
8791;SDS011;4432;50.890;4.744;2022-12-24T04:26:49;17.47;;;3.30;;
8791;SDS011;4432;50.890;4.744;2022-12-24T04:29:15;14.70;;;2.83;;
8791;SDS011;4432;50.890;4.744;2022-12-24T04:31:41;17.97;;;3.03;;
8791;SDS011;4432;50.890;4.744;2022-12-24T04:34:06;24.23;;;3.90;;
8791;SDS011;4432;50.890;4.744;2022-12-24T04:36:32;21.17;;;2.70;;
8791;SDS011;4432;50.890;4.744;2022-12-24T04:38:58;14.50;;;2.50;;
8791;SDS011;4432;50.890;4.744;2022-12-24T04:41:24;9.63;;;3.03;;
8791;SDS011;4432;50.890;4.744;2022-12-24T04:43:50;14.30;;;2.70;;
8791;SDS011;4432;50.890;4.744;2022-12-24T04:46:19;17.27;;;2.57;;
8791;SDS011;4432;50.890;4.744;2022-12-24T04:48:50;11.37;;;3.00;;
8791;SDS011;4432;50.890;4.744;2022-12-24T04:51:18;15.03;;;3.13;;
8791;SDS011;4432;50.890;4.744;2022-12-24T04:53:44;18.20;;;3.27;;
8791;SDS011;4432;50.890;4.744;2022-12-24T04:56:15;22.03;;;3.50;;
8791;SDS011;4432;50.890;4.744;2022-12-24T04:58:42;12.30;;;2.43;;
8791;SDS011;4432;50.890;4.744;2022-12-24T05:01:12;25.87;;;3.93;;
8791;SDS011;4432;50.890;4.744;2022-12-24T05:03:41;15.60;;;2.33;;
8791;SDS011;4432;50.890;4.744;2022-12-24T05:06:08;27.07;;;3.70;;
8791;SDS011;4432;50.890;4.744;2022-12-24T05:08:37;13.80;;;2.70;;
8791;SDS011;4432;50.890;4.744;2022-12-24T05:11:04;16.10;;;2.30;;
8791;SDS011;4432;50.890;4.744;2022-12-24T05:13:30;22.80;;;3.07;;
8791;SDS011;4432;50.890;4.744;2022-12-24T05:15:56;10.03;;;2.53;;
8791;SDS011;4432;50.890;4.744;2022-12-24T05:18:22;16.50;;;3.10;;
8791;SDS011;4432;50.890;4.744;2022-12-24T05:20:48;10.37;;;2.50;;
8791;SDS011;4432;50.890;4.744;2022-12-24T05:23:18;20.67;;;3.30;;
8791;SDS011;4432;50.890;4.744;2022-12-24T05:26:14;13.27;;;3.17;;
8791;SDS011;4432;50.890;4.744;2022-12-24T05:28:49;27.17;;;4.07;;
8791;SDS011;4432;50.890;4.744;2022-12-24T05:31:17;17.47;;;3.13;;
8791;SDS011;4432;50.890;4.744;2022-12-24T05:33:43;19.63;;;3.47;;
8791;SDS011;4432;50.890;4.744;2022-12-24T05:36:09;9.60;;;2.50;;
8791;SDS011;4432;50.890;4.744;2022-12-24T05:38:35;15.00;;;3.40;;
8791;SDS011;4432;50.890;4.744;2022-12-24T05:41:02;13.80;;;3.07;;
8791;SDS011;4432;50.890;4.744;2022-12-24T05:43:28;12.07;;;3.03;;
8791;SDS011;4432;50.890;4.744;2022-12-24T05:46:00;18.63;;;2.90;;
8791;SDS011;4432;50.890;4.744;2022-12-24T05:48:27;21.70;;;2.97;;
8791;SDS011;4432;50.890;4.744;2022-12-24T05:50:53;13.73;;;2.53;;
8791;SDS011;4432;50.890;4.744;2022-12-24T05:53:20;18.97;;;2.60;;
8791;SDS011;4432;50.890;4.744;2022-12-24T05:55:46;10.83;;;2.50;;
8791;SDS011;4432;50.890;4.744;2022-12-24T05:58:12;12.70;;;2.23;;
8791;SDS011;4432;50.890;4.744;2022-12-24T06:00:38;15.40;;;3.17;;
8791;SDS011;4432;50.890;4.744;2022-12-24T06:03:04;19.07;;;2.67;;
8791;SDS011;4432;50.890;4.744;2022-12-24T06:05:30;10.30;;;2.60;;
8791;SDS011;4432;50.890;4.744;2022-12-24T06:07:56;17.53;;;2.83;;
8791;SDS011;4432;50.890;4.744;2022-12-24T06:10:22;9.40;;;2.40;;
8791;SDS011;4432;50.890;4.744;2022-12-24T06:12:48;17.20;;;2.27;;
8791;SDS011;4432;50.890;4.744;2022-12-24T06:15:13;20.43;;;3.07;;
8791;SDS011;4432;50.890;4.744;2022-12-24T06:17:39;12.63;;;2.93;;
8791;SDS011;4432;50.890;4.744;2022-12-24T06:20:05;17.13;;;2.63;;
8791;SDS011;4432;50.890;4.744;2022-12-24T06:22:32;11.37;;;2.20;;
8791;SDS011;4432;50.890;4.744;2022-12-24T06:24:57;14.40;;;3.40;;
8791;SDS011;4432;50.890;4.744;2022-12-24T06:27:23;18.77;;;2.93;;
8791;SDS011;4432;50.890;4.744;2022-12-24T06:29:49;15.57;;;2.93;;
8791;SDS011;4432;50.890;4.744;2022-12-24T06:32:15;12.60;;;2.63;;
8791;SDS011;4432;50.890;4.744;2022-12-24T06:34:41;18.80;;;2.90;;
8791;SDS011;4432;50.890;4.744;2022-12-24T06:37:06;21.00;;;3.57;;
8791;SDS011;4432;50.890;4.744;2022-12-24T06:39:32;24.37;;;3.27;;
8791;SDS011;4432;50.890;4.744;2022-12-24T06:41:58;8.13;;;2.20;;
8791;SDS011;4432;50.890;4.744;2022-12-24T06:44:25;20.07;;;3.53;;
8791;SDS011;4432;50.890;4.744;2022-12-24T06:46:50;9.67;;;3.27;;
8791;SDS011;4432;50.890;4.744;2022-12-24T06:49:16;20.13;;;3.00;;
8791;SDS011;4432;50.890;4.744;2022-12-24T06:51:42;17.37;;;3.07;;
8791;SDS011;4432;50.890;4.744;2022-12-24T06:54:08;12.17;;;2.17;;
8791;SDS011;4432;50.890;4.744;2022-12-24T06:56:34;10.87;;;2.87;;
8791;SDS011;4432;50.890;4.744;2022-12-24T06:59:00;19.03;;;3.40;;
8791;SDS011;4432;50.890;4.744;2022-12-24T07:01:25;16.10;;;3.33;;
8791;SDS011;4432;50.890;4.744;2022-12-24T07:03:51;15.63;;;2.40;;
8791;SDS011;4432;50.890;4.744;2022-12-24T07:06:23;14.57;;;2.63;;
8791;SDS011;4432;50.890;4.744;2022-12-24T07:08:51;15.13;;;2.90;;
8791;SDS011;4432;50.890;4.744;2022-12-24T07:11:17;20.07;;;2.63;;
8791;SDS011;4432;50.890;4.744;2022-12-24T07:13:43;10.47;;;2.93;;
8791;SDS011;4432;50.890;4.744;2022-12-24T07:16:10;13.70;;;3.13;;
8791;SDS011;4432;50.890;4.744;2022-12-24T07:18:36;14.23;;;3.13;;
8791;SDS011;4432;50.890;4.744;2022-12-24T07:21:02;16.80;;;2.97;;
8791;SDS011;4432;50.890;4.744;2022-12-24T07:23:29;16.03;;;3.23;;
8791;SDS011;4432;50.890;4.744;2022-12-24T07:26:03;20.87;;;2.90;;
8791;SDS011;4432;50.890;4.744;2022-12-24T07:28:30;22.17;;;3.13;;
8791;SDS011;4432;50.890;4.744;2022-12-24T07:30:56;19.43;;;3.57;;
8791;SDS011;4432;50.890;4.744;2022-12-24T07:33:24;14.67;;;3.27;;
8791;SDS011;4432;50.890;4.744;2022-12-24T07:35:57;15.07;;;2.73;;
8791;SDS011;4432;50.890;4.744;2022-12-24T07:38:24;14.17;;;2.53;;
8791;SDS011;4432;50.890;4.744;2022-12-24T07:40:49;9.73;;;2.80;;
8791;SDS011;4432;50.890;4.744;2022-12-24T07:43:15;16.73;;;2.50;;
8791;SDS011;4432;50.890;4.744;2022-12-24T07:45:41;16.90;;;3.13;;
8791;SDS011;4432;50.890;4.744;2022-12-24T07:48:07;14.03;;;2.47;;
8791;SDS011;4432;50.890;4.744;2022-12-24T07:50:33;9.87;;;2.70;;
8791;SDS011;4432;50.890;4.744;2022-12-24T07:52:59;18.60;;;2.63;;
8791;SDS011;4432;50.890;4.744;2022-12-24T07:55:25;13.27;;;2.73;;
8791;SDS011;4432;50.890;4.744;2022-12-24T07:57:51;14.80;;;2.73;;
8791;SDS011;4432;50.890;4.744;2022-12-24T08:00:17;10.00;;;2.90;;
8791;SDS011;4432;50.890;4.744;2022-12-24T08:02:43;11.67;;;2.30;;
8791;SDS011;4432;50.890;4.744;2022-12-24T08:05:09;13.07;;;2.67;;
8791;SDS011;4432;50.890;4.744;2022-12-24T08:07:35;16.93;;;2.87;;
8791;SDS011;4432;50.890;4.744;2022-12-24T08:10:00;16.93;;;2.50;;
8791;SDS011;4432;50.890;4.744;2022-12-24T08:12:26;17.77;;;3.23;;
8791;SDS011;4432;50.890;4.744;2022-12-24T08:14:52;19.73;;;2.93;;
8791;SDS011;4432;50.890;4.744;2022-12-24T08:17:18;19.83;;;2.93;;
8791;SDS011;4432;50.890;4.744;2022-12-24T08:19:43;15.27;;;3.10;;
8791;SDS011;4432;50.890;4.744;2022-12-24T08:22:09;15.67;;;2.97;;
8791;SDS011;4432;50.890;4.744;2022-12-24T08:24:35;21.63;;;3.27;;
8791;SDS011;4432;50.890;4.744;2022-12-24T08:27:01;22.17;;;3.73;;
8791;SDS011;4432;50.890;4.744;2022-12-24T08:29:27;10.07;;;2.90;;
8791;SDS011;4432;50.890;4.744;2022-12-24T08:31:53;17.87;;;3.37;;
8791;SDS011;4432;50.890;4.744;2022-12-24T08:34:19;25.67;;;3.77;;
8791;SDS011;4432;50.890;4.744;2022-12-24T08:36:45;12.63;;;2.87;;
8791;SDS011;4432;50.890;4.744;2022-12-24T08:39:10;17.60;;;3.27;;
8791;SDS011;4432;50.890;4.744;2022-12-24T08:41:36;20.33;;;2.97;;
8791;SDS011;4432;50.890;4.744;2022-12-24T08:44:02;12.73;;;3.53;;
8791;SDS011;4432;50.890;4.744;2022-12-24T08:46:28;16.33;;;2.80;;
8791;SDS011;4432;50.890;4.744;2022-12-24T08:48:54;15.87;;;3.63;;
8791;SDS011;4432;50.890;4.744;2022-12-24T08:51:19;28.03;;;3.67;;
8791;SDS011;4432;50.890;4.744;2022-12-24T08:53:45;11.33;;;2.47;;
8791;SDS011;4432;50.890;4.744;2022-12-24T08:56:11;23.33;;;3.07;;
8791;SDS011;4432;50.890;4.744;2022-12-24T08:58:37;21.00;;;2.63;;
8791;SDS011;4432;50.890;4.744;2022-12-24T09:01:11;15.37;;;3.03;;
8791;SDS011;4432;50.890;4.744;2022-12-24T09:03:38;12.40;;;3.37;;
8791;SDS011;4432;50.890;4.744;2022-12-24T09:06:05;24.40;;;3.47;;
8791;SDS011;4432;50.890;4.744;2022-12-24T09:08:31;16.07;;;3.57;;
8791;SDS011;4432;50.890;4.744;2022-12-24T09:11:04;15.27;;;2.73;;
8791;SDS011;4432;50.890;4.744;2022-12-24T09:13:32;11.73;;;2.90;;
8791;SDS011;4432;50.890;4.744;2022-12-24T09:15:58;24.77;;;2.97;;
8791;SDS011;4432;50.890;4.744;2022-12-24T09:18:24;21.40;;;3.30;;
8791;SDS011;4432;50.890;4.744;2022-12-24T09:20:49;17.37;;;3.17;;
8791;SDS011;4432;50.890;4.744;2022-12-24T09:23:15;12.90;;;2.73;;
8791;SDS011;4432;50.890;4.744;2022-12-24T09:25:41;13.37;;;3.13;;
8791;SDS011;4432;50.890;4.744;2022-12-24T09:28:07;14.87;;;2.53;;
8791;SDS011;4432;50.890;4.744;2022-12-24T09:30:33;20.37;;;3.00;;
8791;SDS011;4432;50.890;4.744;2022-12-24T09:33:00;20.20;;;3.07;;
8791;SDS011;4432;50.890;4.744;2022-12-24T09:35:26;13.17;;;2.83;;
8791;SDS011;4432;50.890;4.744;2022-12-24T09:37:52;17.37;;;2.93;;
8791;SDS011;4432;50.890;4.744;2022-12-24T09:40:45;14.40;;;3.13;;
8791;SDS011;4432;50.890;4.744;2022-12-24T09:43:21;20.90;;;3.07;;
8791;SDS011;4432;50.890;4.744;2022-12-24T09:48:34;19.83;;;3.33;;
8791;SDS011;4432;50.890;4.744;2022-12-24T09:51:20;10.53;;;3.13;;
8791;SDS011;4432;50.890;4.744;2022-12-24T09:54:03;10.77;;;2.73;;
8791;SDS011;4432;50.890;4.744;2022-12-24T09:56:38;15.13;;;2.80;;
8791;SDS011;4432;50.890;4.744;2022-12-24T09:59:12;18.17;;;3.83;;
8791;SDS011;4432;50.890;4.744;2022-12-24T10:01:45;16.77;;;2.60;;
8791;SDS011;4432;50.890;4.744;2022-12-24T10:04:15;18.13;;;3.00;;
8791;SDS011;4432;50.890;4.744;2022-12-24T10:25:59;15.90;;;2.97;;
8791;SDS011;4432;50.890;4.744;2022-12-24T10:29:19;13.70;;;2.80;;
8791;SDS011;4432;50.890;4.744;2022-12-24T10:34:22;18.50;;;2.57;;
8791;SDS011;4432;50.890;4.744;2022-12-24T10:36:52;11.57;;;3.40;;
8791;SDS011;4432;50.890;4.744;2022-12-24T10:39:19;13.63;;;2.70;;
8791;SDS011;4432;50.890;4.744;2022-12-24T10:41:49;18.60;;;2.70;;
8791;SDS011;4432;50.890;4.744;2022-12-24T10:44:18;17.00;;;2.67;;
8791;SDS011;4432;50.890;4.744;2022-12-24T10:46:47;6.03;;;2.20;;
8791;SDS011;4432;50.890;4.744;2022-12-24T10:49:33;7.93;;;2.50;;
8791;SDS011;4432;50.890;4.744;2022-12-24T10:52:13;18.93;;;2.73;;
8791;SDS011;4432;50.890;4.744;2022-12-24T10:57:32;10.23;;;3.03;;
8791;SDS011;4432;50.890;4.744;2022-12-24T10:59:59;9.87;;;2.63;;
8791;SDS011;4432;50.890;4.744;2022-12-24T11:02:33;11.93;;;2.47;;
8791;SDS011;4432;50.890;4.744;2022-12-24T11:05:01;18.20;;;2.93;;
8791;SDS011;4432;50.890;4.744;2022-12-24T11:07:29;9.43;;;2.50;;
8791;SDS011;4432;50.890;4.744;2022-12-24T11:10:00;11.77;;;2.97;;
8791;SDS011;4432;50.890;4.744;2022-12-24T11:12:32;14.70;;;3.10;;
8791;SDS011;4432;50.890;4.744;2022-12-24T11:15:04;16.00;;;2.57;;
8791;SDS011;4432;50.890;4.744;2022-12-24T11:17:59;19.50;;;2.47;;
8791;SDS011;4432;50.890;4.744;2022-12-24T11:20:31;10.90;;;2.80;;
8791;SDS011;4432;50.890;4.744;2022-12-24T11:22:59;14.17;;;2.70;;
8791;SDS011;4432;50.890;4.744;2022-12-24T11:25:27;15.47;;;2.77;;
8791;SDS011;4432;50.890;4.744;2022-12-24T11:27:56;11.57;;;2.63;;
8791;SDS011;4432;50.890;4.744;2022-12-24T11:31:01;11.07;;;2.50;;
8791;SDS011;4432;50.890;4.744;2022-12-24T11:33:29;11.10;;;2.40;;
8791;SDS011;4432;50.890;4.744;2022-12-24T11:35:58;13.80;;;2.87;;
8791;SDS011;4432;50.890;4.744;2022-12-24T11:38:27;15.73;;;2.60;;
8791;SDS011;4432;50.890;4.744;2022-12-24T11:40:57;8.47;;;2.87;;
8791;SDS011;4432;50.890;4.744;2022-12-24T11:43:25;14.13;;;2.40;;
8791;SDS011;4432;50.890;4.744;2022-12-24T11:51:37;13.10;;;3.10;;
8791;SDS011;4432;50.890;4.744;2022-12-24T11:57:30;13.90;;;2.37;;
8791;SDS011;4432;50.890;4.744;2022-12-24T12:00:23;14.43;;;2.93;;
8791;SDS011;4432;50.890;4.744;2022-12-24T12:02:50;17.83;;;3.30;;
8791;SDS011;4432;50.890;4.744;2022-12-24T12:05:22;9.20;;;2.73;;
8791;SDS011;4432;50.890;4.744;2022-12-24T12:07:54;16.90;;;2.97;;
8791;SDS011;4432;50.890;4.744;2022-12-24T12:10:27;9.40;;;2.43;;
8791;SDS011;4432;50.890;4.744;2022-12-24T12:12:58;14.73;;;3.17;;
8791;SDS011;4432;50.890;4.744;2022-12-24T12:15:34;25.00;;;3.03;;
8791;SDS011;4432;50.890;4.744;2022-12-24T12:18:15;13.23;;;2.20;;
8791;SDS011;4432;50.890;4.744;2022-12-24T12:21:01;15.33;;;3.20;;
8791;SDS011;4432;50.890;4.744;2022-12-24T12:23:35;10.13;;;2.80;;
8791;SDS011;4432;50.890;4.744;2022-12-24T12:26:14;13.27;;;2.00;;
8791;SDS011;4432;50.890;4.744;2022-12-24T12:37:39;7.07;;;2.53;;
8791;SDS011;4432;50.890;4.744;2022-12-24T12:39:53;12.53;;;2.60;;
8791;SDS011;4432;50.890;4.744;2022-12-24T12:42:30;16.77;;;3.13;;
8791;SDS011;4432;50.890;4.744;2022-12-24T12:48:10;11.40;;;2.87;;
8791;SDS011;4432;50.890;4.744;2022-12-24T12:51:11;14.00;;;2.50;;
8791;SDS011;4432;50.890;4.744;2022-12-24T12:53:45;8.67;;;2.87;;
8791;SDS011;4432;50.890;4.744;2022-12-24T12:56:34;10.03;;;2.43;;
8791;SDS011;4432;50.890;4.744;2022-12-24T12:59:13;10.13;;;2.00;;
8791;SDS011;4432;50.890;4.744;2022-12-24T13:01:49;15.93;;;2.80;;
8791;SDS011;4432;50.890;4.744;2022-12-24T13:21:22;6.10;;;2.40;;
8791;SDS011;4432;50.890;4.744;2022-12-24T13:23:49;9.80;;;2.30;;
8791;SDS011;4432;50.890;4.744;2022-12-24T13:26:28;9.13;;;1.93;;
8791;SDS011;4432;50.890;4.744;2022-12-24T13:28:54;12.23;;;2.23;;
8791;SDS011;4432;50.890;4.744;2022-12-24T13:31:25;8.87;;;2.03;;
8791;SDS011;4432;50.890;4.744;2022-12-24T13:33:53;14.40;;;2.97;;
8791;SDS011;4432;50.890;4.744;2022-12-24T13:36:21;9.87;;;2.33;;
8791;SDS011;4432;50.890;4.744;2022-12-24T13:38:54;13.77;;;2.87;;
8791;SDS011;4432;50.890;4.744;2022-12-24T13:44:16;7.80;;;2.13;;
8791;SDS011;4432;50.890;4.744;2022-12-24T13:49:41;7.63;;;2.27;;
8791;SDS011;4432;50.890;4.744;2022-12-24T13:54:36;7.43;;;2.20;;
8791;SDS011;4432;50.890;4.744;2022-12-24T14:00:42;4.50;;;2.10;;
8791;SDS011;4432;50.890;4.744;2022-12-24T14:08:09;8.80;;;2.47;;
8791;SDS011;4432;50.890;4.744;2022-12-24T14:11:03;6.77;;;2.40;;
8791;SDS011;4432;50.890;4.744;2022-12-24T14:16:07;9.80;;;2.30;;
8791;SDS011;4432;50.890;4.744;2022-12-24T14:18:59;12.20;;;2.80;;
8791;SDS011;4432;50.890;4.744;2022-12-24T14:21:33;8.30;;;2.20;;
8791;SDS011;4432;50.890;4.744;2022-12-24T14:24:02;14.43;;;3.17;;
8791;SDS011;4432;50.890;4.744;2022-12-24T14:26:43;8.43;;;3.57;;
8791;SDS011;4432;50.890;4.744;2022-12-24T14:29:20;10.50;;;2.50;;
8791;SDS011;4432;50.890;4.744;2022-12-24T14:32:11;6.60;;;2.10;;
8791;SDS011;4432;50.890;4.744;2022-12-24T14:34:39;11.37;;;2.80;;
8791;SDS011;4432;50.890;4.744;2022-12-24T14:37:05;5.80;;;2.07;;
8791;SDS011;4432;50.890;4.744;2022-12-24T14:39:32;12.57;;;2.60;;
8791;SDS011;4432;50.890;4.744;2022-12-24T14:42:09;8.83;;;2.80;;
8791;SDS011;4432;50.890;4.744;2022-12-24T14:47:40;15.47;;;2.37;;
8791;SDS011;4432;50.890;4.744;2022-12-24T14:50:50;7.63;;;2.33;;
8791;SDS011;4432;50.890;4.744;2022-12-24T14:56:18;8.53;;;2.20;;
8791;SDS011;4432;50.890;4.744;2022-12-24T14:58:45;8.53;;;2.60;;
8791;SDS011;4432;50.890;4.744;2022-12-24T15:06:38;15.17;;;3.77;;
8791;SDS011;4432;50.890;4.744;2022-12-24T15:11:45;13.20;;;3.03;;
8791;SDS011;4432;50.890;4.744;2022-12-24T15:14:15;9.33;;;2.30;;
8791;SDS011;4432;50.890;4.744;2022-12-24T15:16:43;15.93;;;2.90;;
8791;SDS011;4432;50.890;4.744;2022-12-24T15:21:52;8.93;;;2.67;;
8791;SDS011;4432;50.890;4.744;2022-12-24T15:24:24;10.00;;;3.23;;
8791;SDS011;4432;50.890;4.744;2022-12-24T15:26:58;12.47;;;2.90;;
8791;SDS011;4432;50.890;4.744;2022-12-24T15:29:28;14.97;;;3.00;;
8791;SDS011;4432;50.890;4.744;2022-12-24T15:31:57;12.83;;;2.83;;
8791;SDS011;4432;50.890;4.744;2022-12-24T15:34:29;9.63;;;2.77;;
8791;SDS011;4432;50.890;4.744;2022-12-24T15:37:02;10.63;;;3.40;;
8791;SDS011;4432;50.890;4.744;2022-12-24T15:39:34;11.23;;;2.57;;
8791;SDS011;4432;50.890;4.744;2022-12-24T15:42:00;9.83;;;3.23;;
8791;SDS011;4432;50.890;4.744;2022-12-24T15:44:39;9.33;;;2.53;;
8791;SDS011;4432;50.890;4.744;2022-12-24T15:47:18;7.47;;;2.23;;
8791;SDS011;4432;50.890;4.744;2022-12-24T15:49:49;14.47;;;2.27;;
8791;SDS011;4432;50.890;4.744;2022-12-24T15:52:16;10.63;;;3.13;;
8791;SDS011;4432;50.890;4.744;2022-12-24T15:54:48;4.90;;;2.30;;
8791;SDS011;4432;50.890;4.744;2022-12-24T15:57:22;8.37;;;2.80;;
8791;SDS011;4432;50.890;4.744;2022-12-24T15:59:52;10.30;;;3.17;;
8791;SDS011;4432;50.890;4.744;2022-12-24T16:02:33;11.13;;;3.07;;
8791;SDS011;4432;50.890;4.744;2022-12-24T16:07:58;5.63;;;2.20;;
8791;SDS011;4432;50.890;4.744;2022-12-24T16:13:20;7.63;;;2.83;;
8791;SDS011;4432;50.890;4.744;2022-12-24T16:15:57;8.50;;;2.80;;
8791;SDS011;4432;50.890;4.744;2022-12-24T16:18:37;13.43;;;3.40;;
8791;SDS011;4432;50.890;4.744;2022-12-24T16:21:28;20.50;;;4.63;;
8791;SDS011;4432;50.890;4.744;2022-12-24T16:24:34;9.57;;;3.50;;
8791;SDS011;4432;50.890;4.744;2022-12-24T16:26:53;12.73;;;3.60;;
8791;SDS011;4432;50.890;4.744;2022-12-24T16:29:19;12.67;;;3.07;;
8791;SDS011;4432;50.890;4.744;2022-12-24T16:31:53;14.97;;;3.70;;
8791;SDS011;4432;50.890;4.744;2022-12-24T16:34:25;20.57;;;3.83;;
8791;SDS011;4432;50.890;4.744;2022-12-24T16:36:53;19.10;;;4.07;;
8791;SDS011;4432;50.890;4.744;2022-12-24T16:39:24;20.67;;;4.37;;
8791;SDS011;4432;50.890;4.744;2022-12-24T16:41:55;24.70;;;4.30;;
8791;SDS011;4432;50.890;4.744;2022-12-24T16:44:41;14.20;;;3.83;;
8791;SDS011;4432;50.890;4.744;2022-12-24T16:47:11;19.03;;;3.73;;
8791;SDS011;4432;50.890;4.744;2022-12-24T16:49:46;20.33;;;4.00;;
8791;SDS011;4432;50.890;4.744;2022-12-24T16:52:33;7.47;;;3.60;;
8791;SDS011;4432;50.890;4.744;2022-12-24T16:54:58;24.57;;;5.10;;
8791;SDS011;4432;50.890;4.744;2022-12-24T16:57:24;18.27;;;3.73;;
8791;SDS011;4432;50.890;4.744;2022-12-24T16:59:51;23.73;;;4.37;;
8791;SDS011;4432;50.890;4.744;2022-12-24T17:02:21;15.87;;;3.70;;
8791;SDS011;4432;50.890;4.744;2022-12-24T17:04:48;14.43;;;4.30;;
8791;SDS011;4432;50.890;4.744;2022-12-24T17:07:16;14.23;;;3.77;;
8791;SDS011;4432;50.890;4.744;2022-12-24T17:09:43;14.93;;;3.97;;
8791;SDS011;4432;50.890;4.744;2022-12-24T17:12:09;26.43;;;4.13;;
8791;SDS011;4432;50.890;4.744;2022-12-24T17:14:36;20.63;;;4.47;;
8791;SDS011;4432;50.890;4.744;2022-12-24T17:17:03;26.93;;;6.40;;
8791;SDS011;4432;50.890;4.744;2022-12-24T17:19:29;18.37;;;7.17;;
8791;SDS011;4432;50.890;4.744;2022-12-24T17:21:55;23.83;;;5.30;;
8791;SDS011;4432;50.890;4.744;2022-12-24T17:24:21;13.43;;;4.70;;
8791;SDS011;4432;50.890;4.744;2022-12-24T17:26:46;19.47;;;4.37;;
8791;SDS011;4432;50.890;4.744;2022-12-24T17:29:12;17.07;;;4.33;;
8791;SDS011;4432;50.890;4.744;2022-12-24T17:31:38;16.80;;;4.63;;
8791;SDS011;4432;50.890;4.744;2022-12-24T17:34:04;14.20;;;3.63;;
8791;SDS011;4432;50.890;4.744;2022-12-24T17:36:30;16.67;;;4.43;;
8791;SDS011;4432;50.890;4.744;2022-12-24T17:38:56;13.70;;;3.97;;
8791;SDS011;4432;50.890;4.744;2022-12-24T17:41:22;15.27;;;4.50;;